Time;durP1;ratioP1;P1;durP2;ratioP2;P2;SDS_P1;SDS_P2;PMS_P1;PMS_P2;Temp;Humidity;BMP_temperature;BMP_pressure;BME280_temperature;BME280_humidity;BME280_pressure;Samples;Min_cycle;Max_cycle;Signal;HPM_P1;HPM_P2
2022/03/04 00:00:25;;;;;;;20.77;8.45;;;0.30;99.90;;;;;;5053151;28;20495;-66
2022/03/04 00:02:52;;;;;;;19.08;7.32;;;0.30;99.90;;;;;;5050606;28;20420;-67
2022/03/04 00:05:18;;;;;;;19.35;7.60;;;0.40;99.90;;;;;;5051933;28;20141;-66
2022/03/04 00:07:43;;;;;;;20.73;8.57;;;0.30;99.90;;;;;;5060482;28;20646;-66
2022/03/04 00:10:09;;;;;;;17.02;7.70;;;0.20;99.90;;;;;;5058805;28;20483;-67
2022/03/04 00:12:35;;;;;;;22.25;8.48;;;0.20;99.90;;;;;;5069025;28;20523;-66
2022/03/04 00:15:00;;;;;;;19.33;8.55;;;0.20;99.90;;;;;;5053812;28;20056;-66
2022/03/04 00:17:26;;;;;;;17.60;7.65;;;0.20;99.90;;;;;;5058693;28;20078;-66
2022/03/04 00:19:52;;;;;;;20.35;8.70;;;0.10;99.90;;;;;;5057290;28;20040;-66
2022/03/04 00:22:17;;;;;;;19.13;8.50;;;0.10;99.90;;;;;;5065201;28;20048;-66
2022/03/04 00:24:43;;;;;;;19.98;8.50;;;0.00;99.90;;;;;;5066970;28;20042;-66
2022/03/04 00:27:08;;;;;;;17.65;8.60;;;0.00;99.90;;;;;;5061784;28;20467;-67
2022/03/04 00:29:34;;;;;;;22.10;8.75;;;0.00;99.90;;;;;;5057857;28;20389;-66
2022/03/04 00:31:59;;;;;;;17.90;7.60;;;0.00;99.90;;;;;;5045824;28;20613;-66
2022/03/04 00:34:25;;;;;;;19.80;8.07;;;0.00;99.90;;;;;;5043978;28;20099;-66
2022/03/04 00:36:51;;;;;;;20.02;9.25;;;0.00;99.90;;;;;;5060874;28;20700;-66
2022/03/04 00:39:16;;;;;;;18.65;8.45;;;-0.10;99.90;;;;;;5049364;28;20041;-67
2022/03/04 00:41:42;;;;;;;20.80;9.27;;;-0.20;99.90;;;;;;5067945;28;20045;-67
2022/03/04 00:44:08;;;;;;;19.30;8.48;;;-0.10;99.90;;;;;;5068733;28;20132;-66
2022/03/04 00:46:34;;;;;;;18.75;7.57;;;-0.20;99.90;;;;;;5063067;28;20044;-67
2022/03/04 00:49:00;;;;;;;22.52;7.97;;;-0.30;99.90;;;;;;5055392;28;20068;-66
2022/03/04 00:51:26;;;;;;;21.85;8.23;;;-0.40;99.90;;;;;;5049405;28;20080;-67
2022/03/04 00:53:52;;;;;;;19.58;8.43;;;-0.40;99.90;;;;;;5046846;28;20044;-67
2022/03/04 00:56:17;;;;;;;22.25;8.77;;;-0.50;99.90;;;;;;5049415;28;20480;-66
2022/03/04 00:58:43;;;;;;;17.83;8.57;;;-0.50;99.90;;;;;;5049080;28;20052;-66
2022/03/04 01:01:09;;;;;;;22.42;8.75;;;-0.50;99.90;;;;;;5057987;28;20072;-67
2022/03/04 01:03:35;;;;;;;21.15;8.20;;;-0.50;99.90;;;;;;5048637;28;20040;-66
2022/03/04 01:06:03;;;;;;;25.27;8.93;;;-0.60;99.90;;;;;;5065584;28;20040;-67
2022/03/04 01:08:29;;;;;;;19.17;8.35;;;-0.50;99.90;;;;;;5061224;28;20033;-66
2022/03/04 01:10:55;;;;;;;18.50;8.68;;;-0.40;99.90;;;;;;5052700;28;20039;-66
2022/03/04 01:13:21;;;;;;;26.65;10.10;;;-0.40;99.90;;;;;;5050739;28;20696;-66
2022/03/04 01:15:47;;;;;;;17.83;8.13;;;-0.60;99.90;;;;;;5068452;28;20484;-67
2022/03/04 01:18:13;;;;;;;22.40;9.20;;;-0.60;99.90;;;;;;5063249;28;20047;-66
2022/03/04 01:20:39;;;;;;;23.13;9.07;;;-0.60;99.90;;;;;;5058253;28;20032;-66
2022/03/04 01:23:04;;;;;;;25.58;9.75;;;-0.60;99.90;;;;;;5048186;28;20558;-66
2022/03/04 01:25:30;;;;;;;27.15;10.18;;;-0.60;99.90;;;;;;5062147;28;20464;-66
2022/03/04 01:27:55;;;;;;;23.23;9.52;;;-0.60;99.90;;;;;;5066734;28;20116;-67
2022/03/04 01:30:21;;;;;;;22.45;9.75;;;-0.70;99.90;;;;;;5061442;28;20041;-66
2022/03/04 01:32:47;;;;;;;24.65;9.57;;;-0.80;99.90;;;;;;5060994;28;20065;-66
2022/03/04 01:35:13;;;;;;;20.20;9.02;;;-0.90;99.90;;;;;;5062375;28;20051;-66
2022/03/04 01:37:40;;;;;;;23.38;9.60;;;-1.00;99.90;;;;;;5069244;28;20083;-66
2022/03/04 01:40:07;;;;;;;22.67;10.95;;;-0.90;99.90;;;;;;5059344;28;20040;-66
2022/03/04 01:42:33;;;;;;;26.20;10.75;;;-0.90;99.90;;;;;;5052593;28;20107;-66
2022/03/04 01:44:59;;;;;;;22.88;9.35;;;-1.00;99.90;;;;;;5053665;28;20041;-66
2022/03/04 01:47:24;;;;;;;26.05;9.73;;;-1.00;99.90;;;;;;5051615;28;20465;-66
2022/03/04 01:49:50;;;;;;;19.42;9.18;;;-1.00;99.90;;;;;;5053057;28;20044;-67
2022/03/04 01:52:16;;;;;;;23.13;9.45;;;-1.00;99.90;;;;;;5056082;28;20071;-66
2022/03/04 01:54:41;;;;;;;23.55;10.50;;;-1.00;99.90;;;;;;5040875;28;20036;-66
2022/03/04 01:57:07;;;;;;;21.48;9.73;;;-1.10;99.90;;;;;;5072661;28;20047;-67
2022/03/04 01:59:32;;;;;;;24.95;10.05;;;-1.10;99.90;;;;;;5041687;28;20064;-66
2022/03/04 02:01:58;;;;;;;23.35;10.00;;;-1.10;99.90;;;;;;5060495;28;20101;-66
2022/03/04 02:04:25;;;;;;;25.98;10.07;;;-1.10;99.90;;;;;;5059859;28;20075;-66
2022/03/04 02:06:51;;;;;;;26.48;11.32;;;-1.00;99.90;;;;;;5048861;28;20829;-66
2022/03/04 02:09:17;;;;;;;25.92;10.82;;;-0.90;99.90;;;;;;5069859;28;20037;-66
2022/03/04 02:11:44;;;;;;;25.15;10.43;;;-0.90;99.90;;;;;;5060585;28;20040;-66
2022/03/04 02:14:13;;;;;;;25.35;11.07;;;-1.00;99.90;;;;;;5059312;28;20526;-66
2022/03/04 02:16:49;;;;;;;25.15;10.48;;;-0.90;99.90;;;;;;5059788;28;20131;-66
2022/03/04 02:19:15;;;;;;;26.15;10.32;;;-0.90;99.90;;;;;;5062724;28;20064;-66
2022/03/04 02:21:58;;;;;;;27.80;10.48;;;-0.90;99.90;;;;;;5049335;28;20649;-67
2022/03/04 02:24:25;;;;;;;24.23;10.32;;;-0.90;99.90;;;;;;5050282;28;20053;-66
2022/03/04 02:26:53;;;;;;;24.63;10.38;;;-0.90;99.90;;;;;;5051312;28;20033;-66
2022/03/04 02:29:20;;;;;;;28.75;10.15;;;-0.90;99.90;;;;;;5059081;28;20049;-66
2022/03/04 02:31:46;;;;;;;25.27;10.75;;;-0.90;99.90;;;;;;5055950;28;20182;-66
2022/03/04 02:34:12;;;;;;;30.63;12.32;;;-0.90;99.90;;;;;;5041851;28;20043;-66
2022/03/04 02:36:38;;;;;;;25.90;10.82;;;-1.00;99.90;;;;;;5044813;28;20468;-66
2022/03/04 02:39:05;;;;;;;27.67;10.60;;;-1.00;99.90;;;;;;5060563;28;20037;-66
2022/03/04 02:41:31;;;;;;;26.90;11.20;;;-1.10;99.90;;;;;;5033504;28;20092;-66
2022/03/04 02:43:56;;;;;;;24.58;10.63;;;-1.10;99.90;;;;;;5053189;28;20065;-65
2022/03/04 02:46:22;;;;;;;25.88;10.52;;;-1.10;99.90;;;;;;5050923;28;20095;-66
2022/03/04 02:48:47;;;;;;;30.58;10.68;;;-1.20;99.90;;;;;;5049893;28;20029;-66
2022/03/04 02:51:13;;;;;;;24.98;9.38;;;-1.20;99.90;;;;;;5065485;28;20067;-66
2022/03/04 02:53:38;;;;;;;27.08;10.43;;;-1.20;99.90;;;;;;5038812;28;20040;-66
2022/03/04 02:56:04;;;;;;;33.28;13.10;;;-1.20;99.90;;;;;;5053354;28;20621;-66
2022/03/04 02:58:30;;;;;;;26.55;10.88;;;-1.20;99.90;;;;;;5070601;28;20043;-66
2022/03/04 03:00:56;;;;;;;28.75;11.75;;;-1.10;99.90;;;;;;5051701;28;20044;-66
2022/03/04 03:03:21;;;;;;;26.67;11.32;;;-1.10;99.90;;;;;;5066691;28;20090;-66
2022/03/04 03:05:47;;;;;;;32.75;12.88;;;-1.00;99.90;;;;;;5056494;28;20546;-65
2022/03/04 03:08:12;;;;;;;32.78;13.60;;;-1.00;99.90;;;;;;5045667;28;20970;-66
2022/03/04 03:10:38;;;;;;;29.15;11.77;;;-0.90;99.90;;;;;;5055801;28;20488;-66
2022/03/04 03:13:04;;;;;;;37.60;14.82;;;-0.90;99.90;;;;;;5069644;28;20032;-65
2022/03/04 03:15:30;;;;;;;33.08;12.77;;;-0.80;99.90;;;;;;5047331;28;20114;-65
2022/03/04 03:17:55;;;;;;;38.92;14.77;;;-0.80;99.90;;;;;;5065432;28;20040;-65
2022/03/04 03:20:21;;;;;;;32.08;12.77;;;-0.70;99.90;;;;;;5063234;28;20049;-66
2022/03/04 03:22:47;;;;;;;41.78;13.57;;;-0.70;99.90;;;;;;5050345;28;20036;-66
2022/03/04 03:25:13;;;;;;;31.17;12.25;;;-0.60;99.90;;;;;;5051566;28;20048;-66
2022/03/04 03:27:39;;;;;;;39.22;14.15;;;-0.60;99.90;;;;;;5066200;28;20037;-66
2022/03/04 03:30:06;;;;;;;34.67;13.02;;;-0.60;99.90;;;;;;5036960;28;20586;-66
2022/03/04 03:32:32;;;;;;;37.33;13.02;;;-0.60;99.90;;;;;;5062688;28;20045;-66
2022/03/04 03:34:58;;;;;;;40.88;14.05;;;-0.60;99.90;;;;;;5056270;28;20094;-66
2022/03/04 03:37:24;;;;;;;34.90;13.40;;;-0.60;99.90;;;;;;5048422;28;20044;-66
2022/03/04 03:39:49;;;;;;;41.60;14.25;;;-0.60;99.90;;;;;;5060740;28;20060;-66
2022/03/04 03:42:15;;;;;;;31.13;14.10;;;-0.60;99.90;;;;;;5075267;28;20048;-66
2022/03/04 03:44:41;;;;;;;38.08;13.52;;;-0.50;99.90;;;;;;5061680;28;20040;-66
2022/03/04 03:47:06;;;;;;;36.47;14.77;;;-0.50;99.90;;;;;;5057999;28;20526;-66
2022/03/04 03:49:32;;;;;;;37.88;13.98;;;-0.50;99.90;;;;;;5061567;28;20036;-66
2022/03/04 03:51:58;;;;;;;38.88;14.82;;;-0.50;99.90;;;;;;5055571;28;20805;-66
2022/03/04 03:54:23;;;;;;;33.80;12.25;;;-0.40;99.90;;;;;;5033196;28;20033;-66
2022/03/04 03:56:49;;;;;;;37.13;14.32;;;-0.50;99.90;;;;;;5057342;28;20048;-65
2022/03/04 03:59:15;;;;;;;35.72;13.85;;;-0.50;99.90;;;;;;5064824;28;20047;-66
2022/03/04 04:01:40;;;;;;;32.53;13.43;;;-0.50;99.90;;;;;;5058166;28;20037;-66
2022/03/04 04:04:12;;;;;;;37.35;12.98;;;-0.60;99.90;;;;;;5035539;28;20067;-69
2022/03/04 04:06:39;;;;;;;35.15;13.75;;;-0.60;99.90;;;;;;5059390;28;20036;-69
2022/03/04 04:09:06;;;;;;;40.88;14.38;;;-0.60;99.90;;;;;;5047931;28;20036;-66
2022/03/04 04:11:35;;;;;;;38.05;13.30;;;-0.60;99.90;;;;;;5067638;28;20157;-66
2022/03/04 04:14:05;;;;;;;36.90;14.15;;;-0.60;99.90;;;;;;5066896;28;20053;-66
2022/03/04 04:16:31;;;;;;;41.45;15.13;;;-0.50;99.90;;;;;;5054400;28;20070;-66
2022/03/04 04:18:57;;;;;;;39.30;14.13;;;-0.50;99.90;;;;;;5059259;28;20452;-65
2022/03/04 04:21:24;;;;;;;41.55;14.07;;;-0.50;99.90;;;;;;5057237;28;20133;-66
2022/03/04 04:23:50;;;;;;;37.75;13.68;;;-0.50;99.90;;;;;;5062736;28;20063;-66
2022/03/04 04:26:16;;;;;;;40.00;14.70;;;-0.40;99.90;;;;;;5057298;28;20037;-65
2022/03/04 04:28:41;;;;;;;34.80;14.60;;;-0.40;99.90;;;;;;5058051;28;20448;-66
2022/03/04 04:31:07;;;;;;;38.20;14.43;;;-0.40;99.90;;;;;;5049367;28;20110;-66
2022/03/04 04:33:32;;;;;;;36.17;14.68;;;-0.40;99.90;;;;;;5050906;28;20097;-66
2022/03/04 04:35:58;;;;;;;38.05;14.27;;;-0.40;99.90;;;;;;5046169;28;20138;-65
2022/03/04 04:38:24;;;;;;;42.30;15.50;;;-0.50;99.90;;;;;;5046247;28;20488;-65
2022/03/04 04:40:49;;;;;;;40.17;16.42;;;-0.40;99.90;;;;;;5053509;28;20131;-66
2022/03/04 04:43:15;;;;;;;39.50;13.98;;;-0.40;99.90;;;;;;5048741;28;20060;-65
2022/03/04 04:45:41;;;;;;;44.03;16.02;;;-0.40;99.90;;;;;;5049219;28;20074;-65
2022/03/04 04:48:06;;;;;;;42.10;14.50;;;-0.50;99.90;;;;;;5064523;28;20028;-65
2022/03/04 04:50:32;;;;;;;39.35;15.15;;;-0.50;99.90;;;;;;5054259;28;20044;-65
2022/03/04 04:52:58;;;;;;;39.20;14.95;;;-0.50;99.90;;;;;;5031567;28;20135;-65
2022/03/04 04:55:23;;;;;;;37.03;13.52;;;-0.60;99.90;;;;;;5048938;28;20135;-65
2022/03/04 04:57:49;;;;;;;37.28;15.98;;;-0.60;99.90;;;;;;5054960;28;20503;-65
2022/03/04 05:00:14;;;;;;;39.78;14.77;;;-0.60;99.90;;;;;;5048906;28;20052;-65
2022/03/04 05:02:40;;;;;;;34.05;13.30;;;-0.60;99.90;;;;;;5063358;28;20040;-66
2022/03/04 05:05:06;;;;;;;37.33;14.15;;;-0.60;99.90;;;;;;5070831;28;20098;-65
2022/03/04 05:07:31;;;;;;;40.95;14.15;;;-0.60;99.90;;;;;;5053127;28;20151;-66
2022/03/04 05:09:57;;;;;;;40.38;15.32;;;-0.60;99.90;;;;;;5062585;28;20035;-66
2022/03/04 05:12:23;;;;;;;44.22;15.80;;;-0.60;99.90;;;;;;5050120;28;20064;-66
2022/03/04 05:14:48;;;;;;;39.95;15.70;;;-0.60;99.90;;;;;;5053627;28;20056;-66
2022/03/04 05:17:14;;;;;;;35.47;13.90;;;-0.60;99.90;;;;;;5059520;28;20120;-66
2022/03/04 05:19:39;;;;;;;35.70;14.00;;;-0.60;99.90;;;;;;5058756;28;20040;-66
2022/03/04 05:22:05;;;;;;;38.25;15.43;;;-0.60;99.90;;;;;;5050809;28;20068;-66
2022/03/04 05:24:30;;;;;;;40.10;14.13;;;-0.60;99.90;;;;;;5051896;28;20076;-65
2022/03/04 05:26:56;;;;;;;39.03;14.93;;;-0.50;99.90;;;;;;5054277;28;20087;-66
2022/03/04 05:29:21;;;;;;;38.83;15.13;;;-0.50;99.90;;;;;;5053851;28;20136;-66
2022/03/04 05:31:47;;;;;;;37.58;13.32;;;-0.50;99.90;;;;;;5056639;28;20047;-65
2022/03/04 05:34:13;;;;;;;39.67;14.65;;;-0.50;99.90;;;;;;5056619;28;20613;-66
2022/03/04 05:36:39;;;;;;;34.95;13.52;;;-0.50;99.90;;;;;;5067862;28;20082;-66
2022/03/04 05:39:05;;;;;;;33.58;13.32;;;-0.50;99.90;;;;;;5056042;28;20040;-65
2022/03/04 05:41:30;;;;;;;35.15;12.30;;;-0.50;99.90;;;;;;5035770;28;20075;-65
2022/03/04 05:43:56;;;;;;;38.75;13.90;;;-0.60;99.90;;;;;;5053296;28;20459;-65
2022/03/04 05:46:22;;;;;;;34.92;12.32;;;-0.60;99.90;;;;;;5067208;28;20044;-66
2022/03/04 05:48:48;;;;;;;36.60;12.85;;;-0.60;99.90;;;;;;5067524;28;20456;-65
2022/03/04 05:51:14;;;;;;;38.03;13.75;;;-0.70;99.90;;;;;;5035355;28;20524;-68
2022/03/04 05:53:40;;;;;;;36.28;14.82;;;-0.60;99.90;;;;;;5060715;28;20096;-66
2022/03/04 05:56:07;;;;;;;39.08;14.45;;;-0.60;99.90;;;;;;5052303;28;20036;-67
2022/03/04 05:58:34;;;;;;;40.42;14.55;;;-0.60;99.90;;;;;;5051245;28;20059;-69
2022/03/04 06:01:00;;;;;;;37.95;14.55;;;-0.60;99.90;;;;;;5062528;28;20060;-67
2022/03/04 06:03:26;;;;;;;35.28;13.82;;;-0.70;99.90;;;;;;5066057;28;20464;-65
2022/03/04 06:05:52;;;;;;;39.40;15.00;;;-0.70;99.90;;;;;;5057702;28;20199;-66
2022/03/04 06:08:18;;;;;;;32.47;13.73;;;-0.70;99.90;;;;;;5052948;28;20124;-68
2022/03/04 06:10:44;;;;;;;36.88;13.38;;;-0.70;99.90;;;;;;5035872;28;20052;-66
2022/03/04 06:13:11;;;;;;;35.78;14.90;;;-0.70;99.90;;;;;;5036152;28;20483;-67
2022/03/04 06:15:36;;;;;;;35.33;15.20;;;-0.70;99.90;;;;;;5052906;28;20714;-67
2022/03/04 06:18:02;;;;;;;34.13;13.82;;;-0.70;99.90;;;;;;5062809;28;20064;-68
2022/03/04 06:20:29;;;;;;;35.40;13.75;;;-0.60;99.90;;;;;;5051971;28;20037;-67
2022/03/04 06:22:55;;;;;;;39.42;15.02;;;-0.60;99.90;;;;;;5045828;28;20045;-66
2022/03/04 06:25:20;;;;;;;34.58;14.40;;;-0.60;99.90;;;;;;5052627;28;20488;-68
2022/03/04 06:28:00;;;;;;;41.28;15.93;;;-0.50;99.90;;;;;;5056053;28;20045;-67
2022/03/04 06:30:32;;;;;;;34.88;14.40;;;-0.50;99.90;;;;;;5060125;28;20430;-67
2022/03/04 06:35:44;;;;;;;40.03;14.25;;;-0.50;99.90;;;;;;5050509;28;20056;-66
2022/03/04 06:38:10;;;;;;;38.30;14.10;;;-0.40;99.90;;;;;;5040161;28;20146;-67
2022/03/04 06:40:36;;;;;;;36.40;13.45;;;-0.40;99.90;;;;;;5054253;28;20489;-67
2022/03/04 06:43:03;;;;;;;31.50;12.20;;;-0.40;99.90;;;;;;5069858;28;20036;-66
2022/03/04 06:45:28;;;;;;;31.65;13.90;;;-0.50;99.90;;;;;;5062783;28;20040;-67
2022/03/04 06:47:54;;;;;;;36.60;13.23;;;-0.50;99.90;;;;;;5055355;28;20029;-67
2022/03/04 06:50:19;;;;;;;37.75;14.52;;;-0.50;99.90;;;;;;5051103;28;20025;-66
2022/03/04 06:52:45;;;;;;;33.38;14.55;;;-0.50;99.90;;;;;;5067062;28;20122;-67
2022/03/04 06:55:10;;;;;;;28.85;12.65;;;-0.50;99.90;;;;;;5067509;28;20048;-66
2022/03/04 06:57:37;;;;;;;32.10;14.07;;;-0.50;99.90;;;;;;5040596;28;20048;-66
2022/03/04 07:00:07;;;;;;;36.88;15.10;;;-0.50;99.90;;;;;;5053714;28;20449;-66
2022/03/04 07:02:34;;;;;;;33.17;13.82;;;-0.50;99.90;;;;;;5053160;28;20455;-67
2022/03/04 07:05:05;;;;;;;30.60;13.02;;;-0.40;99.90;;;;;;5064058;28;20036;-67
2022/03/04 07:07:31;;;;;;;33.65;13.98;;;-0.40;99.90;;;;;;5061157;28;20041;-68
2022/03/04 07:09:57;;;;;;;36.97;14.20;;;-0.50;99.90;;;;;;5038796;28;20517;-67
2022/03/04 07:12:22;;;;;;;36.22;14.80;;;-0.40;99.90;;;;;;5050952;28;20499;-67
2022/03/04 07:14:48;;;;;;;36.03;14.25;;;-0.40;99.90;;;;;;5035190;28;20100;-67
2022/03/04 07:17:14;;;;;;;40.25;14.27;;;-0.40;99.90;;;;;;5058275;28;20076;-67
2022/03/04 07:19:40;;;;;;;34.03;14.82;;;-0.40;99.90;;;;;;5043257;28;20045;-67
2022/03/04 07:22:06;;;;;;;34.92;14.10;;;-0.30;99.90;;;;;;5053383;28;20119;-67
2022/03/04 07:24:31;;;;;;;33.10;13.68;;;-0.30;99.90;;;;;;5047125;28;20112;-67
2022/03/04 07:26:58;;;;;;;37.10;15.00;;;-0.20;99.90;;;;;;5058081;28;20086;-67
2022/03/04 07:29:24;;;;;;;32.45;12.73;;;-0.20;99.90;;;;;;5064783;28;20029;-66
2022/03/04 07:31:51;;;;;;;35.95;13.68;;;-0.20;99.90;;;;;;5065868;28;20060;-66
2022/03/04 07:34:16;;;;;;;38.10;14.02;;;-0.20;99.90;;;;;;5050314;28;20032;-66
2022/03/04 07:36:42;;;;;;;33.55;14.57;;;-0.30;99.90;;;;;;5051704;28;20037;-67
2022/03/04 07:39:07;;;;;;;33.92;13.63;;;-0.30;99.90;;;;;;5052698;28;20040;-66
2022/03/04 07:41:33;;;;;;;36.58;15.35;;;-0.20;99.90;;;;;;5049912;28;20075;-66
2022/03/04 07:44:01;;;;;;;36.97;14.32;;;-0.20;99.90;;;;;;5051054;28;20033;-67
2022/03/04 07:46:27;;;;;;;33.72;13.27;;;-0.20;99.90;;;;;;5055043;28;20114;-66
2022/03/04 07:48:52;;;;;;;40.92;14.55;;;-0.20;99.90;;;;;;5038679;28;20524;-67
2022/03/04 07:51:18;;;;;;;32.85;15.02;;;-0.10;99.90;;;;;;5060807;28;20033;-67
2022/03/04 07:53:43;;;;;;;35.95;13.43;;;0.00;99.90;;;;;;5049318;28;20520;-67
2022/03/04 07:56:10;;;;;;;36.95;15.02;;;0.10;99.90;;;;;;5049279;28;20056;-67
2022/03/04 07:58:35;;;;;;;37.75;15.30;;;0.10;99.90;;;;;;5038319;28;20036;-67
2022/03/04 08:01:01;;;;;;;35.13;14.35;;;0.10;99.90;;;;;;5050374;28;20063;-67
2022/03/04 08:03:27;;;;;;;37.85;15.88;;;0.20;99.90;;;;;;5037752;28;20083;-66
2022/03/04 08:05:53;;;;;;;33.72;14.27;;;0.30;99.90;;;;;;5054356;28;20075;-67
2022/03/04 08:08:18;;;;;;;36.60;14.05;;;0.20;99.90;;;;;;5036166;28;20063;-67
2022/03/04 08:10:44;;;;;;;32.72;14.13;;;0.20;99.90;;;;;;5059195;28;20029;-67
2022/03/04 08:13:09;;;;;;;36.72;15.35;;;0.20;99.90;;;;;;5051980;28;20063;-70
2022/03/04 08:15:35;;;;;;;37.15;14.93;;;0.20;99.90;;;;;;5048432;28;20064;-67
2022/03/04 08:18:00;;;;;;;36.70;14.88;;;0.30;99.90;;;;;;5054019;28;20060;-68
2022/03/04 08:20:26;;;;;;;39.92;15.70;;;0.30;99.90;;;;;;5056946;28;20131;-68
2022/03/04 08:22:53;;;;;;;42.00;16.33;;;0.40;99.90;;;;;;5049018;28;20041;-67
2022/03/04 08:25:18;;;;;;;37.72;14.35;;;0.50;99.90;;;;;;5057031;28;20070;-68
2022/03/04 08:27:44;;;;;;;36.70;15.57;;;0.50;99.90;;;;;;5059987;28;20145;-66
2022/03/04 08:30:12;;;;;;;43.25;16.67;;;0.60;99.90;;;;;;5034838;28;20041;-67
2022/03/04 08:32:38;;;;;;;43.00;15.20;;;0.60;99.90;;;;;;5063076;28;20059;-68
2022/03/04 08:35:04;;;;;;;35.25;13.40;;;0.70;99.90;;;;;;5055471;28;20039;-67
2022/03/04 08:37:29;;;;;;;33.80;14.75;;;0.70;99.90;;;;;;5061496;28;20099;-66
2022/03/04 08:39:55;;;;;;;38.45;14.35;;;0.60;99.90;;;;;;5037401;28;20113;-67
2022/03/04 08:42:21;;;;;;;42.75;15.98;;;0.60;99.90;;;;;;5060260;28;20148;-67
2022/03/04 08:44:46;;;;;;;41.60;14.73;;;0.60;99.90;;;;;;5060424;28;20477;-68
2022/03/04 08:47:12;;;;;;;41.33;16.08;;;0.70;99.90;;;;;;5048212;28;20033;-67
2022/03/04 08:49:37;;;;;;;41.45;16.00;;;0.90;99.90;;;;;;5049662;28;20145;-67
2022/03/04 08:52:04;;;;;;;40.53;15.32;;;1.00;99.90;;;;;;5058802;28;20493;-67
2022/03/04 08:54:30;;;;;;;39.22;16.23;;;1.10;99.90;;;;;;5037788;28;20033;-66
2022/03/04 08:56:55;;;;;;;37.67;15.10;;;1.20;99.90;;;;;;5052366;28;20037;-68
2022/03/04 08:59:21;;;;;;;38.45;16.33;;;1.30;99.90;;;;;;5053628;28;20505;-67
2022/03/04 09:01:47;;;;;;;33.05;15.32;;;1.10;99.90;;;;;;5050317;28;20046;-67
2022/03/04 09:04:14;;;;;;;38.40;13.75;;;1.10;99.90;;;;;;5051016;28;20056;-67
2022/03/04 09:06:41;;;;;;;34.17;14.85;;;1.20;99.90;;;;;;5050855;28;20508;-68
2022/03/04 09:09:06;;;;;;;34.15;14.50;;;1.40;99.90;;;;;;5048693;28;20029;-67
2022/03/04 09:11:32;;;;;;;35.72;15.95;;;1.50;99.90;;;;;;5042973;28;20491;-69
2022/03/04 09:13:58;;;;;;;35.35;14.95;;;1.70;99.90;;;;;;5046547;28;20064;-67
2022/03/04 09:16:24;;;;;;;35.08;14.40;;;1.80;99.90;;;;;;5043804;28;20124;-67
2022/03/04 09:18:49;;;;;;;38.28;14.63;;;1.90;99.90;;;;;;5058962;28;20048;-68
2022/03/04 09:21:15;;;;;;;39.60;15.63;;;1.90;99.90;;;;;;5041837;28;20044;-68
2022/03/04 09:23:40;;;;;;;38.63;15.73;;;1.90;99.90;;;;;;5028708;28;20425;-68
2022/03/04 09:26:06;;;;;;;35.22;13.25;;;1.90;99.60;;;;;;5036465;28;20626;-67
2022/03/04 09:28:32;;;;;;;36.75;14.38;;;1.90;99.40;;;;;;5034398;28;20419;-67
2022/03/04 09:30:58;;;;;;;37.38;14.35;;;1.90;99.90;;;;;;5060692;28;20037;-67
2022/03/04 09:33:23;;;;;;;40.08;15.77;;;2.00;99.10;;;;;;5052247;28;20037;-68
2022/03/04 09:35:49;;;;;;;36.53;15.38;;;2.20;99.90;;;;;;5050276;28;20041;-67
2022/03/04 09:38:15;;;;;;;34.97;14.77;;;2.50;99.40;;;;;;5046484;28;20040;-67
2022/03/04 09:40:41;;;;;;;35.13;13.57;;;2.70;99.00;;;;;;5048161;28;20048;-68
2022/03/04 09:43:07;;;;;;;34.15;14.05;;;2.70;97.50;;;;;;5062526;28;20045;-67
2022/03/04 09:45:34;;;;;;;35.38;14.38;;;2.60;97.40;;;;;;5038313;28;20054;-68
2022/03/04 09:48:02;;;;;;;35.17;14.55;;;2.70;97.30;;;;;;5048449;28;20040;-68
2022/03/04 09:50:28;;;;;;;35.22;14.35;;;2.80;97.30;;;;;;5056832;28;20037;-67
2022/03/04 09:52:54;;;;;;;35.03;15.02;;;3.00;97.10;;;;;;5048209;28;20052;-69
2022/03/04 09:55:19;;;;;;;31.58;13.98;;;3.00;96.70;;;;;;5057749;28;20102;-69
2022/03/04 09:57:45;;;;;;;31.02;13.50;;;3.20;96.70;;;;;;5057986;28;20120;-68
2022/03/04 10:00:11;;;;;;;27.05;11.63;;;3.30;95.90;;;;;;5068973;28;20397;-68
2022/03/04 10:02:37;;;;;;;27.67;13.32;;;3.30;94.90;;;;;;5043196;28;20056;-68
2022/03/04 10:05:03;;;;;;;30.38;14.10;;;3.20;94.80;;;;;;5068885;28;20048;-68
2022/03/04 10:07:41;;;;;;;31.23;14.95;;;3.30;94.90;;;;;;5051033;28;20144;-68
2022/03/04 10:10:25;;;;;;;29.95;13.23;;;3.20;94.30;;;;;;5043458;28;20037;-68
2022/03/04 10:12:57;;;;;;;31.13;12.68;;;3.10;94.10;;;;;;5052423;28;20132;-68
2022/03/04 10:15:26;;;;;;;29.55;12.93;;;3.10;94.50;;;;;;5052750;28;20405;-67
2022/03/04 10:17:58;;;;;;;34.70;13.80;;;3.20;94.00;;;;;;5039571;28;20071;-68
2022/03/04 10:20:32;;;;;;;27.92;12.80;;;3.10;93.70;;;;;;5052254;28;20048;-69
2022/03/04 10:23:10;;;;;;;29.02;13.30;;;3.20;94.10;;;;;;5048605;28;20071;-68
2022/03/04 10:25:35;;;;;;;29.67;13.45;;;3.20;93.70;;;;;;5061906;28;20041;-66
2022/03/04 10:28:09;;;;;;;28.88;13.23;;;3.30;93.80;;;;;;5050610;28;20086;-67
2022/03/04 10:30:35;;;;;;;32.30;14.38;;;3.30;93.10;;;;;;5052036;28;20073;-68
2022/03/04 10:33:08;;;;;;;26.75;12.10;;;3.30;93.90;;;;;;5034586;28;20449;-68
2022/03/04 10:35:35;;;;;;;29.38;12.73;;;3.50;94.00;;;;;;5067158;28;20044;-68
2022/03/04 10:38:02;;;;;;;27.67;12.80;;;3.50;93.40;;;;;;5059456;28;20120;-66
2022/03/04 10:40:42;;;;;;;27.48;12.65;;;3.60;93.30;;;;;;5067750;28;20103;-68
2022/03/04 10:43:08;;;;;;;;;;;3.60;92.50;;;;;;5051653;28;20128;-68
2022/03/04 10:45:36;;;;;;;27.52;12.63;;;3.90;91.60;;;;;;5068377;28;20284;-67
2022/03/04 10:48:02;;;;;;;24.45;11.00;;;3.90;92.20;;;;;;5050284;28;20124;-66
2022/03/04 10:50:46;;;;;;;25.48;13.00;;;4.00;91.90;;;;;;5051585;28;20541;-67
2022/03/04 10:53:23;;;;;;;27.88;11.68;;;4.10;91.50;;;;;;5047946;28;20039;-68
2022/03/04 10:55:50;;;;;;;23.20;11.07;;;4.20;91.10;;;;;;5067254;28;20053;-69
2022/03/04 10:58:28;;;;;;;24.67;12.10;;;4.40;90.70;;;;;;5051772;28;20488;-68
2022/03/04 11:00:59;;;;;;;24.42;11.43;;;4.40;90.90;;;;;;5051855;28;20485;-68
2022/03/04 11:03:28;;;;;;;31.00;12.18;;;4.50;90.30;;;;;;5033029;28;20481;-69
2022/03/04 11:05:55;;;;;;;24.02;11.65;;;4.50;90.40;;;;;;5067836;28;20041;-67
2022/03/04 11:08:22;;;;;;;27.80;12.55;;;4.60;90.50;;;;;;5036830;28;20040;-68
2022/03/04 11:10:49;;;;;;;24.38;11.45;;;4.70;90.10;;;;;;5065990;28;20388;-68
2022/03/04 11:13:15;;;;;;;29.33;12.63;;;4.70;89.70;;;;;;5054745;28;20127;-69
2022/03/04 11:15:42;;;;;;;24.05;11.52;;;4.90;89.60;;;;;;5071118;28;20083;-68
2022/03/04 11:18:11;;;;;;;24.00;10.50;;;4.90;88.30;;;;;;5050921;28;20064;-68
2022/03/04 11:20:38;;;;;;;26.88;10.77;;;4.90;88.30;;;;;;5060533;28;20090;-69
2022/03/04 11:23:05;;;;;;;24.70;10.73;;;5.00;88.00;;;;;;5067102;28;20051;-68
2022/03/04 11:25:43;;;;;;;21.27;9.52;;;5.10;88.50;;;;;;5061778;28;20045;-72
2022/03/04 11:28:14;;;;;;;24.52;11.85;;;5.10;85.20;;;;;;5084905;28;20470;-69
2022/03/04 11:30:44;;;;;;;21.48;10.77;;;5.20;86.50;;;;;;5052476;28;20079;-68
2022/03/04 11:33:17;;;;;;;20.42;10.07;;;5.40;85.40;;;;;;5049976;28;20154;-68
2022/03/04 11:35:42;;;;;;;24.20;11.02;;;5.50;81.60;;;;;;5052654;28;20064;-68
2022/03/04 11:38:09;;;;;;;20.98;9.43;;;5.50;82.50;;;;;;5067394;28;20114;-69
2022/03/04 11:40:35;;;;;;;24.75;11.82;;;5.60;82.20;;;;;;5063551;28;20040;-69
2022/03/04 11:43:02;;;;;;;24.95;11.05;;;5.60;83.20;;;;;;5049843;28;20041;-69
2022/03/04 11:45:36;;;;;;;20.83;10.38;;;5.70;80.90;;;;;;5048602;28;20040;-67
2022/03/04 11:48:08;;;;;;;19.60;9.55;;;5.70;82.50;;;;;;5054959;28;20048;-68
2022/03/04 11:50:45;;;;;;;25.50;10.43;;;5.90;83.60;;;;;;5040491;28;20036;-67
2022/03/04 11:53:25;;;;;;;21.27;9.95;;;5.90;81.60;;;;;;5039688;28;20072;-68
2022/03/04 11:56:11;;;;;;;22.85;10.75;;;6.00;81.30;;;;;;5036026;28;20043;-67
2022/03/04 11:58:54;;;;;;;21.30;9.80;;;6.20;81.60;;;;;;5046608;28;20053;-66
2022/03/04 12:01:30;;;;;;;19.05;9.70;;;6.30;78.80;;;;;;5056158;28;20089;-70
2022/03/04 12:04:11;;;;;;;23.10;10.13;;;6.40;79.70;;;;;;5047075;28;20029;-68
2022/03/04 12:06:38;;;;;;;22.45;11.02;;;6.50;80.10;;;;;;5048512;28;20068;-67
2022/03/04 12:09:26;;;;;;;23.20;9.77;;;6.50;80.90;;;;;;5026530;28;20135;-68
2022/03/04 12:12:24;;;;;;;18.88;9.65;;;6.60;79.30;;;;;;5063875;28;20075;-68
2022/03/04 12:14:54;;;;;;;21.63;9.90;;;6.60;78.30;;;;;;5049804;28;20420;-68
2022/03/04 12:17:20;;;;;;;22.23;9.82;;;6.70;79.40;;;;;;5043884;28;20064;-67
2022/03/04 12:19:48;;;;;;;20.60;9.52;;;6.70;78.60;;;;;;5062729;28;20043;-68
2022/03/04 12:22:16;;;;;;;16.90;8.63;;;6.70;78.90;;;;;;5050983;28;20048;-69
2022/03/04 12:25:01;;;;;;;16.55;8.52;;;6.80;78.60;;;;;;5052157;28;20045;-68
2022/03/04 12:27:36;;;;;;;17.90;8.68;;;6.80;77.50;;;;;;5040349;28;20070;-67
2022/03/04 12:30:18;;;;;;;18.58;9.27;;;6.90;76.10;;;;;;5029010;28;20037;-67
2022/03/04 12:32:52;;;;;;;13.73;7.65;;;7.00;75.90;;;;;;5040294;28;20036;-67
2022/03/04 12:35:21;;;;;;;15.95;7.15;;;7.10;74.50;;;;;;5056998;28;20036;-69